sensor_id;sensor_type;location;lat;lon;timestamp;P1;P2;P0
73825;PMS5003;64145;55.060;73.168;2023-04-25T00:01:17;14.25;13.50;7.25
73825;PMS5003;64145;55.060;73.168;2023-04-25T00:04:01;15.25;13.00;5.75
73825;PMS5003;64145;55.060;73.168;2023-04-25T00:06:28;16.50;14.00;5.00
73825;PMS5003;64145;55.060;73.168;2023-04-25T00:08:55;19.00;15.75;8.25
73825;PMS5003;64145;55.060;73.168;2023-04-25T00:11:31;21.25;17.50;9.00
73825;PMS5003;64145;55.060;73.168;2023-04-25T00:14:20;16.50;13.75;7.00
73825;PMS5003;64145;55.060;73.168;2023-04-25T00:16:45;13.00;12.00;4.00
73825;PMS5003;64145;55.060;73.168;2023-04-25T00:19:11;9.00;8.67;3.00
73825;PMS5003;64145;55.060;73.168;2023-04-25T00:21:38;2.00;2.00;0.00
73825;PMS5003;64145;55.060;73.168;2023-04-25T00:24:06;0.00;0.00;0.00
73825;PMS5003;64145;55.060;73.168;2023-04-25T00:26:31;1.75;0.00;0.00
73825;PMS5003;64145;55.060;73.168;2023-04-25T00:28:57;1.00;1.00;0.00
73825;PMS5003;64145;55.060;73.168;2023-04-25T00:34:07;0.00;0.00;0.00
73825;PMS5003;64145;55.060;73.168;2023-04-25T00:36:33;0.00;0.00;0.00
73825;PMS5003;64145;55.060;73.168;2023-04-25T00:38:59;0.00;0.00;0.00
73825;PMS5003;64145;55.060;73.168;2023-04-25T00:41:25;0.00;0.00;0.00
73825;PMS5003;64145;55.060;73.168;2023-04-25T00:43:51;0.00;0.00;0.00
73825;PMS5003;64145;55.060;73.168;2023-04-25T00:49:11;0.00;0.00;0.00
73825;PMS5003;64145;55.060;73.168;2023-04-25T00:51:55;0.00;0.00;0.00
73825;PMS5003;64145;55.060;73.168;2023-04-25T00:54:31;4.75;4.50;0.50
73825;PMS5003;64145;55.060;73.168;2023-04-25T00:57:08;24.00;21.50;14.25
73825;PMS5003;64145;55.060;73.168;2023-04-25T00:59:44;18.25;16.25;9.25
73825;PMS5003;64145;55.060;73.168;2023-04-25T01:04:55;4.25;4.00;3.00
73825;PMS5003;64145;55.060;73.168;2023-04-25T01:07:31;2.00;2.00;1.00
73825;PMS5003;64145;55.060;73.168;2023-04-25T01:12:59;3.00;2.00;0.00
73825;PMS5003;64145;55.060;73.168;2023-04-25T01:15:24;5.00;5.00;2.00
73825;PMS5003;64145;55.060;73.168;2023-04-25T01:17:55;5.00;3.50;1.00
73825;PMS5003;64145;55.060;73.168;2023-04-25T01:20:22;4.00;2.00;1.00
73825;PMS5003;64145;55.060;73.168;2023-04-25T01:22:48;2.75;2.00;1.00
73825;PMS5003;64145;55.060;73.168;2023-04-25T01:25:24;0.50;0.50;0.00
73825;PMS5003;64145;55.060;73.168;2023-04-25T01:27:55;1.50;0.00;0.00
73825;PMS5003;64145;55.060;73.168;2023-04-25T01:30:26;1.00;0.00;0.00
73825;PMS5003;64145;55.060;73.168;2023-04-25T01:32:52;0.00;0.00;0.00
73825;PMS5003;64145;55.060;73.168;2023-04-25T01:35:27;0.00;0.00;0.00
73825;PMS5003;64145;55.060;73.168;2023-04-25T01:37:53;0.00;0.00;0.00
73825;PMS5003;64145;55.060;73.168;2023-04-25T01:40:18;0.00;0.00;0.00
73825;PMS5003;64145;55.060;73.168;2023-04-25T01:42:45;0.00;0.00;0.00
73825;PMS5003;64145;55.060;73.168;2023-04-25T01:45:11;0.00;0.00;0.00
73825;PMS5003;64145;55.060;73.168;2023-04-25T01:47:42;0.00;0.00;0.00
73825;PMS5003;64145;55.060;73.168;2023-04-25T01:50:09;0.75;0.00;0.00
73825;PMS5003;64145;55.060;73.168;2023-04-25T01:52:40;0.00;0.00;0.00
73825;PMS5003;64145;55.060;73.168;2023-04-25T01:55:06;0.00;0.00;0.00
73825;PMS5003;64145;55.060;73.168;2023-04-25T01:57:32;0.00;0.00;0.00
73825;PMS5003;64145;55.060;73.168;2023-04-25T01:59:58;0.00;0.00;0.00
73825;PMS5003;64145;55.060;73.168;2023-04-25T02:02:24;0.00;0.00;0.00
73825;PMS5003;64145;55.060;73.168;2023-04-25T02:04:50;0.00;0.00;0.00
73825;PMS5003;64145;55.060;73.168;2023-04-25T02:10:09;0.00;0.00;0.00
73825;PMS5003;64145;55.060;73.168;2023-04-25T02:13:03;0.00;0.00;0.00
73825;PMS5003;64145;55.060;73.168;2023-04-25T02:15:58;0.00;0.00;0.00
73825;PMS5003;64145;55.060;73.168;2023-04-25T02:18:23;0.00;0.00;0.00
73825;PMS5003;64145;55.060;73.168;2023-04-25T02:20:49;0.00;0.00;0.00
73825;PMS5003;64145;55.060;73.168;2023-04-25T02:23:19;1.50;0.75;0.00
73825;PMS5003;64145;55.060;73.168;2023-04-25T02:31:13;1.00;0.00;0.00
73825;PMS5003;64145;55.060;73.168;2023-04-25T02:33:57;0.00;0.00;0.00
73825;PMS5003;64145;55.060;73.168;2023-04-25T02:36:23;0.00;0.00;0.00
73825;PMS5003;64145;55.060;73.168;2023-04-25T02:38:49;0.00;0.00;0.00
73825;PMS5003;64145;55.060;73.168;2023-04-25T02:41:17;0.00;0.00;0.00
73825;PMS5003;64145;55.060;73.168;2023-04-25T02:43:43;0.00;0.00;0.00
73825;PMS5003;64145;55.060;73.168;2023-04-25T02:46:08;0.00;0.00;0.00
73825;PMS5003;64145;55.060;73.168;2023-04-25T02:48:34;0.00;0.00;0.00
73825;PMS5003;64145;55.060;73.168;2023-04-25T02:51:23;0.00;0.00;0.00
73825;PMS5003;64145;55.060;73.168;2023-04-25T02:53:49;0.67;0.67;0.00
73825;PMS5003;64145;55.060;73.168;2023-04-25T02:56:14;0.00;0.00;0.00
73825;PMS5003;64145;55.060;73.168;2023-04-25T02:58:40;0.00;0.00;0.00
73825;PMS5003;64145;55.060;73.168;2023-04-25T03:01:10;1.00;0.00;0.00
73825;PMS5003;64145;55.060;73.168;2023-04-25T03:03:35;1.00;0.67;0.00
73825;PMS5003;64145;55.060;73.168;2023-04-25T03:06:01;0.00;0.00;0.00
73825;PMS5003;64145;55.060;73.168;2023-04-25T03:08:26;0.67;0.00;0.00
73825;PMS5003;64145;55.060;73.168;2023-04-25T03:10:57;0.00;0.00;0.00
73825;PMS5003;64145;55.060;73.168;2023-04-25T03:13:23;1.00;0.00;0.00
73825;PMS5003;64145;55.060;73.168;2023-04-25T03:15:49;0.00;0.00;0.00
73825;PMS5003;64145;55.060;73.168;2023-04-25T03:18:18;0.00;0.00;0.00
73825;PMS5003;64145;55.060;73.168;2023-04-25T03:20:54;0.00;0.00;0.00
73825;PMS5003;64145;55.060;73.168;2023-04-25T03:23:37;0.00;0.00;0.00
73825;PMS5003;64145;55.060;73.168;2023-04-25T03:26:09;0.00;0.00;0.00
73825;PMS5003;64145;55.060;73.168;2023-04-25T03:28:34;0.00;0.00;0.00
73825;PMS5003;64145;55.060;73.168;2023-04-25T03:31:00;0.00;0.00;0.00
73825;PMS5003;64145;55.060;73.168;2023-04-25T03:33:44;0.00;0.00;0.00
73825;PMS5003;64145;55.060;73.168;2023-04-25T03:36:09;0.67;0.00;0.00
73825;PMS5003;64145;55.060;73.168;2023-04-25T03:38:35;0.00;0.00;0.00
73825;PMS5003;64145;55.060;73.168;2023-04-25T03:41:01;0.33;0.33;0.00
73825;PMS5003;64145;55.060;73.168;2023-04-25T03:43:26;0.00;0.00;0.00
73825;PMS5003;64145;55.060;73.168;2023-04-25T03:45:57;0.00;0.00;0.00
73825;PMS5003;64145;55.060;73.168;2023-04-25T03:48:23;1.00;1.00;0.00
73825;PMS5003;64145;55.060;73.168;2023-04-25T03:50:51;1.00;1.00;0.00
73825;PMS5003;64145;55.060;73.168;2023-04-25T03:53:16;0.00;0.00;0.00
73825;PMS5003;64145;55.060;73.168;2023-04-25T03:55:47;0.00;0.00;0.00
73825;PMS5003;64145;55.060;73.168;2023-04-25T03:58:12;0.00;0.00;0.00
73825;PMS5003;64145;55.060;73.168;2023-04-25T04:00:43;0.00;0.00;0.00
73825;PMS5003;64145;55.060;73.168;2023-04-25T04:03:09;0.00;0.00;0.00
73825;PMS5003;64145;55.060;73.168;2023-04-25T04:05:46;2.00;0.00;0.00
73825;PMS5003;64145;55.060;73.168;2023-04-25T04:10:57;1.00;0.00;0.00
73825;PMS5003;64145;55.060;73.168;2023-04-25T04:13:23;0.00;0.00;0.00
73825;PMS5003;64145;55.060;73.168;2023-04-25T04:15:59;0.00;0.00;0.00
73825;PMS5003;64145;55.060;73.168;2023-04-25T04:18:24;0.00;0.00;0.00
73825;PMS5003;64145;55.060;73.168;2023-04-25T04:20:59;0.00;0.00;0.00
73825;PMS5003;64145;55.060;73.168;2023-04-25T04:23:34;0.00;0.00;0.00
73825;PMS5003;64145;55.060;73.168;2023-04-25T04:26:06;0.00;0.00;0.00
73825;PMS5003;64145;55.060;73.168;2023-04-25T04:31:17;1.00;1.00;0.00
73825;PMS5003;64145;55.060;73.168;2023-04-25T04:34:01;0.00;0.00;0.00
73825;PMS5003;64145;55.060;73.168;2023-04-25T04:36:31;1.00;0.00;0.00
73825;PMS5003;64145;55.060;73.168;2023-04-25T04:38:57;1.00;0.00;0.00
73825;PMS5003;64145;55.060;73.168;2023-04-25T04:41:32;0.00;0.00;0.00
73825;PMS5003;64145;55.060;73.168;2023-04-25T04:43:59;0.00;0.00;0.00
73825;PMS5003;64145;55.060;73.168;2023-04-25T04:46:26;0.00;0.00;0.00
73825;PMS5003;64145;55.060;73.168;2023-04-25T04:49:10;0.00;0.00;0.00
73825;PMS5003;64145;55.060;73.168;2023-04-25T04:51:37;1.00;0.00;0.00
73825;PMS5003;64145;55.060;73.168;2023-04-25T04:54:03;0.00;0.00;0.00
73825;PMS5003;64145;55.060;73.168;2023-04-25T04:56:34;0.00;0.00;0.00
73825;PMS5003;64145;55.060;73.168;2023-04-25T04:59:00;0.00;0.00;0.00
73825;PMS5003;64145;55.060;73.168;2023-04-25T05:01:45;0.00;0.00;0.00
73825;PMS5003;64145;55.060;73.168;2023-04-25T05:04:21;0.00;0.00;0.00
73825;PMS5003;64145;55.060;73.168;2023-04-25T05:06:52;0.00;0.00;0.00
73825;PMS5003;64145;55.060;73.168;2023-04-25T05:09:18;0.00;0.00;0.00
73825;PMS5003;64145;55.060;73.168;2023-04-25T05:11:44;0.00;0.00;0.00
73825;PMS5003;64145;55.060;73.168;2023-04-25T05:14:10;0.00;0.00;0.00
73825;PMS5003;64145;55.060;73.168;2023-04-25T05:16:35;0.00;0.00;0.00
73825;PMS5003;64145;55.060;73.168;2023-04-25T05:19:01;0.67;0.00;0.00
73825;PMS5003;64145;55.060;73.168;2023-04-25T05:21:26;0.00;0.00;0.00
73825;PMS5003;64145;55.060;73.168;2023-04-25T05:23:57;0.00;0.00;0.00
73825;PMS5003;64145;55.060;73.168;2023-04-25T05:26:28;0.00;0.00;0.00
73825;PMS5003;64145;55.060;73.168;2023-04-25T05:29:11;0.00;0.00;0.00
73825;PMS5003;64145;55.060;73.168;2023-04-25T05:31:55;0.00;0.00;0.00
73825;PMS5003;64145;55.060;73.168;2023-04-25T05:34:39;0.00;0.00;0.00
73825;PMS5003;64145;55.060;73.168;2023-04-25T05:37:05;0.00;0.00;0.00
73825;PMS5003;64145;55.060;73.168;2023-04-25T05:39:30;0.00;0.00;0.00
73825;PMS5003;64145;55.060;73.168;2023-04-25T05:41:56;0.00;0.00;0.00
73825;PMS5003;64145;55.060;73.168;2023-04-25T05:44:21;1.00;0.00;0.00
73825;PMS5003;64145;55.060;73.168;2023-04-25T05:46:47;0.00;0.00;0.00
73825;PMS5003;64145;55.060;73.168;2023-04-25T05:51:57;0.00;0.00;0.00
73825;PMS5003;64145;55.060;73.168;2023-04-25T05:54:23;1.00;0.00;0.00
73825;PMS5003;64145;55.060;73.168;2023-04-25T05:56:48;1.00;0.00;0.00
73825;PMS5003;64145;55.060;73.168;2023-04-25T05:59:15;0.00;0.00;0.00
73825;PMS5003;64145;55.060;73.168;2023-04-25T06:04:52;0.00;0.00;0.00
73825;PMS5003;64145;55.060;73.168;2023-04-25T06:07:18;0.67;0.00;0.00
73825;PMS5003;64145;55.060;73.168;2023-04-25T06:09:45;0.00;0.00;0.00
73825;PMS5003;64145;55.060;73.168;2023-04-25T06:12:31;0.00;0.00;0.00
73825;PMS5003;64145;55.060;73.168;2023-04-25T06:14:57;0.25;0.25;0.00
73825;PMS5003;64145;55.060;73.168;2023-04-25T06:20:07;1.00;1.00;0.00
73825;PMS5003;64145;55.060;73.168;2023-04-25T06:22:33;0.00;0.00;0.00
73825;PMS5003;64145;55.060;73.168;2023-04-25T06:24:58;1.00;0.00;0.00
73825;PMS5003;64145;55.060;73.168;2023-04-25T06:27:25;1.75;0.00;0.00
73825;PMS5003;64145;55.060;73.168;2023-04-25T06:29:51;1.00;1.00;0.00
73825;PMS5003;64145;55.060;73.168;2023-04-25T06:32:16;1.00;1.00;0.00
73825;PMS5003;64145;55.060;73.168;2023-04-25T06:35:00;0.00;0.00;0.00
73825;PMS5003;64145;55.060;73.168;2023-04-25T06:40:28;0.00;0.00;0.00
73825;PMS5003;64145;55.060;73.168;2023-04-25T06:42:54;0.33;0.33;0.00
73825;PMS5003;64145;55.060;73.168;2023-04-25T06:45:19;1.00;1.00;0.00
73825;PMS5003;64145;55.060;73.168;2023-04-25T06:47:45;0.00;0.00;0.00
73825;PMS5003;64145;55.060;73.168;2023-04-25T06:50:16;1.00;0.00;0.00
73825;PMS5003;64145;55.060;73.168;2023-04-25T06:52:41;2.33;1.00;0.00
73825;PMS5003;64145;55.060;73.168;2023-04-25T06:55:25;0.00;0.00;0.00
73825;PMS5003;64145;55.060;73.168;2023-04-25T06:58:14;0.00;0.00;0.00
73825;PMS5003;64145;55.060;73.168;2023-04-25T07:00:39;1.00;0.00;0.00
73825;PMS5003;64145;55.060;73.168;2023-04-25T07:03:05;0.33;0.00;0.00
73825;PMS5003;64145;55.060;73.168;2023-04-25T07:05:30;0.00;0.00;0.00
73825;PMS5003;64145;55.060;73.168;2023-04-25T07:10:50;0.00;0.00;0.00
73825;PMS5003;64145;55.060;73.168;2023-04-25T07:13:15;0.00;0.00;0.00
73825;PMS5003;64145;55.060;73.168;2023-04-25T07:15:41;0.00;0.00;0.00
73825;PMS5003;64145;55.060;73.168;2023-04-25T07:18:17;0.00;0.00;0.00
73825;PMS5003;64145;55.060;73.168;2023-04-25T07:20:42;2.67;1.00;0.00
73825;PMS5003;64145;55.060;73.168;2023-04-25T07:23:13;1.00;0.00;0.00
73825;PMS5003;64145;55.060;73.168;2023-04-25T07:25:44;1.00;1.00;0.00
73825;PMS5003;64145;55.060;73.168;2023-04-25T07:28:17;0.00;0.00;0.00
73825;PMS5003;64145;55.060;73.168;2023-04-25T07:30:43;1.00;1.00;0.00
73825;PMS5003;64145;55.060;73.168;2023-04-25T07:33:18;0.00;0.00;0.00
73825;PMS5003;64145;55.060;73.168;2023-04-25T07:35:45;0.00;0.00;0.00
73825;PMS5003;64145;55.060;73.168;2023-04-25T07:38:17;0.00;0.00;0.00
73825;PMS5003;64145;55.060;73.168;2023-04-25T07:40:42;1.00;0.00;0.00
73825;PMS5003;64145;55.060;73.168;2023-04-25T07:43:32;1.00;0.00;0.00
73825;PMS5003;64145;55.060;73.168;2023-04-25T07:45:57;0.00;0.00;0.00
73825;PMS5003;64145;55.060;73.168;2023-04-25T07:51:26;1.00;1.00;0.00
73825;PMS5003;64145;55.060;73.168;2023-04-25T07:53:51;1.00;1.00;0.00
73825;PMS5003;64145;55.060;73.168;2023-04-25T07:56:27;1.00;1.00;0.00
73825;PMS5003;64145;55.060;73.168;2023-04-25T07:58:58;1.00;0.00;0.00
73825;PMS5003;64145;55.060;73.168;2023-04-25T08:01:23;0.33;0.00;0.00
73825;PMS5003;64145;55.060;73.168;2023-04-25T08:03:49;2.00;0.00;0.00
73825;PMS5003;64145;55.060;73.168;2023-04-25T08:08:59;1.00;0.00;0.00
73825;PMS5003;64145;55.060;73.168;2023-04-25T08:11:29;1.00;0.00;0.00
73825;PMS5003;64145;55.060;73.168;2023-04-25T08:13:55;0.00;0.00;0.00
73825;PMS5003;64145;55.060;73.168;2023-04-25T08:16:20;0.00;0.00;0.00
73825;PMS5003;64145;55.060;73.168;2023-04-25T08:18:46;0.33;0.00;0.00
73825;PMS5003;64145;55.060;73.168;2023-04-25T08:21:11;0.00;0.00;0.00
73825;PMS5003;64145;55.060;73.168;2023-04-25T08:26:33;0.00;0.00;0.00
73825;PMS5003;64145;55.060;73.168;2023-04-25T08:28:59;0.00;0.00;0.00
73825;PMS5003;64145;55.060;73.168;2023-04-25T08:31:30;0.00;0.00;0.00
73825;PMS5003;64145;55.060;73.168;2023-04-25T08:33:55;1.00;0.00;0.00
73825;PMS5003;64145;55.060;73.168;2023-04-25T08:36:21;0.00;0.00;0.00
73825;PMS5003;64145;55.060;73.168;2023-04-25T08:38:46;0.67;0.00;0.00
73825;PMS5003;64145;55.060;73.168;2023-04-25T08:41:12;0.00;0.00;0.00
73825;PMS5003;64145;55.060;73.168;2023-04-25T08:43:38;0.00;0.00;0.00
73825;PMS5003;64145;55.060;73.168;2023-04-25T08:48:59;0.00;0.00;0.00
73825;PMS5003;64145;55.060;73.168;2023-04-25T08:51:25;0.00;0.00;0.00
73825;PMS5003;64145;55.060;73.168;2023-04-25T08:53:53;1.00;1.00;0.00
73825;PMS5003;64145;55.060;73.168;2023-04-25T08:59:31;1.50;1.50;0.00
73825;PMS5003;64145;55.060;73.168;2023-04-25T09:02:03;2.00;2.00;0.00
73825;PMS5003;64145;55.060;73.168;2023-04-25T09:04:31;1.00;1.00;0.00
73825;PMS5003;64145;55.060;73.168;2023-04-25T09:07:02;2.00;2.00;1.00
73825;PMS5003;64145;55.060;73.168;2023-04-25T09:09:46;3.00;3.00;1.00
73825;PMS5003;64145;55.060;73.168;2023-04-25T09:12:22;10.50;10.50;7.00
73825;PMS5003;64145;55.060;73.168;2023-04-25T09:15:09;9.33;8.33;5.00
73825;PMS5003;64145;55.060;73.168;2023-04-25T09:17:33;4.00;2.25;1.00
73825;PMS5003;64145;55.060;73.168;2023-04-25T09:20:14;2.00;1.00;1.00
73825;PMS5003;64145;55.060;73.168;2023-04-25T09:22:40;0.00;0.00;0.00
73825;PMS5003;64145;55.060;73.168;2023-04-25T09:25:09;1.00;0.00;0.00
73825;PMS5003;64145;55.060;73.168;2023-04-25T09:30:30;1.00;1.00;0.00
73825;PMS5003;64145;55.060;73.168;2023-04-25T09:32:57;2.00;1.25;0.25
73825;PMS5003;64145;55.060;73.168;2023-04-25T09:35:42;2.00;1.00;0.00
73825;PMS5003;64145;55.060;73.168;2023-04-25T09:38:10;3.75;3.00;0.00
73825;PMS5003;64145;55.060;73.168;2023-04-25T09:40:44;4.25;4.00;0.00
73825;PMS5003;64145;55.060;73.168;2023-04-25T09:43:23;4.00;4.00;1.00
73825;PMS5003;64145;55.060;73.168;2023-04-25T09:45:58;5.00;5.00;1.00
73825;PMS5003;64145;55.060;73.168;2023-04-25T09:48:26;4.00;4.00;1.00
73825;PMS5003;64145;55.060;73.168;2023-04-25T09:51:05;1.25;1.25;1.00
73825;PMS5003;64145;55.060;73.168;2023-04-25T09:53:44;1.00;1.00;0.00
73825;PMS5003;64145;55.060;73.168;2023-04-25T09:56:29;0.00;0.00;0.00
73825;PMS5003;64145;55.060;73.168;2023-04-25T09:59:00;2.00;2.00;0.00
73825;PMS5003;64145;55.060;73.168;2023-04-25T10:01:30;2.00;2.00;0.00
73825;PMS5003;64145;55.060;73.168;2023-04-25T10:04:22;1.00;1.00;0.00
73825;PMS5003;64145;55.060;73.168;2023-04-25T10:06:48;1.00;1.00;0.00
73825;PMS5003;64145;55.060;73.168;2023-04-25T10:09:26;0.00;0.00;0.00
73825;PMS5003;64145;55.060;73.168;2023-04-25T10:11:52;0.00;0.00;0.00
73825;PMS5003;64145;55.060;73.168;2023-04-25T10:14:27;0.50;0.00;0.00
73825;PMS5003;64145;55.060;73.168;2023-04-25T10:19:39;0.00;0.00;0.00
73825;PMS5003;64145;55.060;73.168;2023-04-25T10:22:16;2.00;2.00;0.00
73825;PMS5003;64145;55.060;73.168;2023-04-25T10:24:53;3.00;3.00;0.00
73825;PMS5003;64145;55.060;73.168;2023-04-25T10:27:18;3.00;3.00;1.00
73825;PMS5003;64145;55.060;73.168;2023-04-25T10:29:44;3.67;2.00;0.00
73825;PMS5003;64145;55.060;73.168;2023-04-25T10:32:10;2.00;1.00;0.00
73825;PMS5003;64145;55.060;73.168;2023-04-25T10:34:54;1.00;1.00;0.00
73825;PMS5003;64145;55.060;73.168;2023-04-25T10:37:19;1.00;0.00;0.00
73825;PMS5003;64145;55.060;73.168;2023-04-25T10:39:45;0.00;0.00;0.00
73825;PMS5003;64145;55.060;73.168;2023-04-25T10:42:11;0.00;0.00;0.00
73825;PMS5003;64145;55.060;73.168;2023-04-25T10:44:37;0.00;0.00;0.00
73825;PMS5003;64145;55.060;73.168;2023-04-25T10:47:03;1.00;1.00;0.00
73825;PMS5003;64145;55.060;73.168;2023-04-25T10:52:14;1.00;1.00;0.00
73825;PMS5003;64145;55.060;73.168;2023-04-25T10:54:47;1.00;1.00;0.00
73825;PMS5003;64145;55.060;73.168;2023-04-25T10:59:59;0.00;0.00;0.00
73825;PMS5003;64145;55.060;73.168;2023-04-25T11:02:47;0.00;0.00;0.00
73825;PMS5003;64145;55.060;73.168;2023-04-25T11:05:17;0.00;0.00;0.00
73825;PMS5003;64145;55.060;73.168;2023-04-25T11:07:52;0.00;0.00;0.00
73825;PMS5003;64145;55.060;73.168;2023-04-25T11:10:19;0.00;0.00;0.00
73825;PMS5003;64145;55.060;73.168;2023-04-25T11:12:50;0.00;0.00;0.00
73825;PMS5003;64145;55.060;73.168;2023-04-25T11:15:16;0.00;0.00;0.00
73825;PMS5003;64145;55.060;73.168;2023-04-25T11:17:43;0.00;0.00;0.00
73825;PMS5003;64145;55.060;73.168;2023-04-25T11:20:21;1.00;1.00;0.00
73825;PMS5003;64145;55.060;73.168;2023-04-25T11:22:47;4.25;4.25;0.00
73825;PMS5003;64145;55.060;73.168;2023-04-25T11:30:51;7.25;6.00;4.00
73825;PMS5003;64145;55.060;73.168;2023-04-25T11:33:17;5.75;5.00;3.00
73825;PMS5003;64145;55.060;73.168;2023-04-25T11:35:53;3.50;3.00;1.00
73825;PMS5003;64145;55.060;73.168;2023-04-25T11:38:19;2.00;2.00;1.00
73825;PMS5003;64145;55.060;73.168;2023-04-25T11:41:09;4.00;4.00;2.00
73825;PMS5003;64145;55.060;73.168;2023-04-25T11:43:44;18.50;17.50;10.00
73825;PMS5003;64145;55.060;73.168;2023-04-25T11:46:20;25.25;25.25;15.25
73825;PMS5003;64145;55.060;73.168;2023-04-25T11:48:46;18.25;17.75;8.00
73825;PMS5003;64145;55.060;73.168;2023-04-25T11:51:12;16.00;15.00;6.00
73825;PMS5003;64145;55.060;73.168;2023-04-25T11:53:44;10.25;7.50;4.00
73825;PMS5003;64145;55.060;73.168;2023-04-25T11:56:10;6.00;5.00;2.25
73825;PMS5003;64145;55.060;73.168;2023-04-25T11:59:00;5.00;4.00;2.25
73825;PMS5003;64145;55.060;73.168;2023-04-25T12:04:16;17.25;15.75;11.00
73825;PMS5003;64145;55.060;73.168;2023-04-25T12:06:43;10.50;9.00;4.00
73825;PMS5003;64145;55.060;73.168;2023-04-25T12:12:12;3.00;3.00;2.00
73825;PMS5003;64145;55.060;73.168;2023-04-25T12:14:38;1.67;0.67;0.00
73825;PMS5003;64145;55.060;73.168;2023-04-25T12:17:04;5.00;4.00;2.00
73825;PMS5003;64145;55.060;73.168;2023-04-25T12:19:48;2.00;2.00;0.00
73825;PMS5003;64145;55.060;73.168;2023-04-25T12:25:08;3.00;3.00;2.00
73825;PMS5003;64145;55.060;73.168;2023-04-25T12:27:35;2.00;2.00;1.00
73825;PMS5003;64145;55.060;73.168;2023-04-25T12:30:01;1.00;1.00;1.00
73825;PMS5003;64145;55.060;73.168;2023-04-25T12:32:27;3.00;2.00;1.00
73825;PMS5003;64145;55.060;73.168;2023-04-25T12:34:52;14.00;11.33;7.00
73825;PMS5003;64145;55.060;73.168;2023-04-25T12:37:18;19.33;18.00;8.00
73825;PMS5003;64145;55.060;73.168;2023-04-25T12:40:02;7.75;7.00;1.25
73825;PMS5003;64145;55.060;73.168;2023-04-25T12:42:46;1.00;1.00;0.00
73825;PMS5003;64145;55.060;73.168;2023-04-25T12:45:12;2.67;2.00;0.00
73825;PMS5003;64145;55.060;73.168;2023-04-25T12:50:31;0.00;0.00;0.00
73825;PMS5003;64145;55.060;73.168;2023-04-25T12:53:08;0.00;0.00;0.00
73825;PMS5003;64145;55.060;73.168;2023-04-25T12:55:52;0.00;0.00;0.00
73825;PMS5003;64145;55.060;73.168;2023-04-25T12:58:18;0.00;0.00;0.00
73825;PMS5003;64145;55.060;73.168;2023-04-25T13:00:44;0.00;0.00;0.00
73825;PMS5003;64145;55.060;73.168;2023-04-25T13:03:10;5.50;4.50;1.50
73825;PMS5003;64145;55.060;73.168;2023-04-25T13:05:37;4.00;4.00;1.00
73825;PMS5003;64145;55.060;73.168;2023-04-25T13:08:03;2.00;2.00;0.00
73825;PMS5003;64145;55.060;73.168;2023-04-25T13:10:29;1.00;1.00;0.00
73825;PMS5003;64145;55.060;73.168;2023-04-25T13:12:55;0.00;0.00;0.00
73825;PMS5003;64145;55.060;73.168;2023-04-25T13:15:20;10.00;9.00;4.00
73825;PMS5003;64145;55.060;73.168;2023-04-25T13:17:47;8.25;6.50;3.00
73825;PMS5003;64145;55.060;73.168;2023-04-25T13:20:12;27.33;21.67;12.00
73825;PMS5003;64145;55.060;73.168;2023-04-25T13:22:39;36.75;31.00;19.00
73825;PMS5003;64145;55.060;73.168;2023-04-25T13:25:05;28.00;23.33;12.00
73825;PMS5003;64145;55.060;73.168;2023-04-25T13:27:41;27.00;22.25;10.75
73825;PMS5003;64145;55.060;73.168;2023-04-25T13:30:09;27.50;25.50;14.50
73825;PMS5003;64145;55.060;73.168;2023-04-25T13:32:35;29.00;25.25;14.00
73825;PMS5003;64145;55.060;73.168;2023-04-25T13:35:02;28.75;25.75;15.50
73825;PMS5003;64145;55.060;73.168;2023-04-25T13:37:28;26.00;24.00;17.00
73825;PMS5003;64145;55.060;73.168;2023-04-25T13:39:55;30.75;28.75;18.25
73825;PMS5003;64145;55.060;73.168;2023-04-25T13:42:31;38.00;33.25;21.00
73825;PMS5003;64145;55.060;73.168;2023-04-25T13:45:02;34.00;31.25;21.00
73825;PMS5003;64145;55.060;73.168;2023-04-25T13:47:28;29.50;26.25;18.00
73825;PMS5003;64145;55.060;73.168;2023-04-25T13:52:56;24.25;21.75;11.00
73825;PMS5003;64145;55.060;73.168;2023-04-25T13:55:22;25.00;23.00;11.00
73825;PMS5003;64145;55.060;73.168;2023-04-25T13:57:48;45.67;37.33;22.67
73825;PMS5003;64145;55.060;73.168;2023-04-25T14:00:13;75.67;66.00;37.00
73825;PMS5003;64145;55.060;73.168;2023-04-25T14:02:39;88.00;82.00;45.33
73825;PMS5003;64145;55.060;73.168;2023-04-25T14:07:59;76.25;66.00;37.00
73825;PMS5003;64145;55.060;73.168;2023-04-25T14:10:24;57.33;45.33;27.00
73825;PMS5003;64145;55.060;73.168;2023-04-25T14:12:50;28.33;26.33;14.00
73825;PMS5003;64145;55.060;73.168;2023-04-25T14:15:34;19.00;18.00;6.00
73825;PMS5003;64145;55.060;73.168;2023-04-25T14:18:18;12.75;11.75;4.00
73825;PMS5003;64145;55.060;73.168;2023-04-25T14:20:44;17.00;16.50;8.75
73825;PMS5003;64145;55.060;73.168;2023-04-25T14:23:10;21.00;21.00;10.00
73825;PMS5003;64145;55.060;73.168;2023-04-25T14:25:36;22.67;20.67;8.67
73825;PMS5003;64145;55.060;73.168;2023-04-25T14:28:20;26.00;22.50;14.00
73825;PMS5003;64145;55.060;73.168;2023-04-25T14:30:45;26.00;24.33;17.00
73825;PMS5003;64145;55.060;73.168;2023-04-25T14:33:11;25.67;23.00;16.00
73825;PMS5003;64145;55.060;73.168;2023-04-25T14:35:37;33.00;30.00;20.00
73825;PMS5003;64145;55.060;73.168;2023-04-25T14:38:02;38.50;32.00;23.00
73825;PMS5003;64145;55.060;73.168;2023-04-25T14:40:28;36.33;32.00;21.00
73825;PMS5003;64145;55.060;73.168;2023-04-25T14:42:54;37.00;31.00;21.00
73825;PMS5003;64145;55.060;73.168;2023-04-25T14:45:29;28.00;25.50;17.00
73825;PMS5003;64145;55.060;73.168;2023-04-25T14:48:05;23.00;21.00;13.75
73825;PMS5003;64145;55.060;73.168;2023-04-25T14:50:49;24.25;21.25;14.00
73825;PMS5003;64145;55.060;73.168;2023-04-25T14:53:25;48.50;39.75;27.75
73825;PMS5003;64145;55.060;73.168;2023-04-25T14:55:52;56.50;45.50;31.00
73825;PMS5003;64145;55.060;73.168;2023-04-25T14:58:17;59.00;47.00;32.00
73825;PMS5003;64145;55.060;73.168;2023-04-25T15:00:43;60.00;48.00;33.00
73825;PMS5003;64145;55.060;73.168;2023-04-25T15:05:56;59.25;47.00;32.00
73825;PMS5003;64145;55.060;73.168;2023-04-25T15:08:32;71.50;60.25;39.50
73825;PMS5003;64145;55.060;73.168;2023-04-25T15:10:58;78.00;71.33;46.67
73825;PMS5003;64145;55.060;73.168;2023-04-25T15:16:26;112.50;104.50;67.50
73825;PMS5003;64145;55.060;73.168;2023-04-25T15:18:52;137.00;124.33;77.00
73825;PMS5003;64145;55.060;73.168;2023-04-25T15:21:17;195.00;178.33;105.00
73825;PMS5003;64145;55.060;73.168;2023-04-25T15:23:53;295.00;272.75;152.25
73825;PMS5003;64145;55.060;73.168;2023-04-25T15:26:18;331.67;307.67;168.67
73825;PMS5003;64145;55.060;73.168;2023-04-25T15:28:49;289.00;267.25;154.25
73825;PMS5003;64145;55.060;73.168;2023-04-25T15:31:15;236.33;213.67;130.67
73825;PMS5003;64145;55.060;73.168;2023-04-25T15:33:40;199.00;184.33;114.00
73825;PMS5003;64145;55.060;73.168;2023-04-25T15:36:06;168.33;156.67;100.00
73825;PMS5003;64145;55.060;73.168;2023-04-25T15:38:31;143.67;133.67;87.33
73825;PMS5003;64145;55.060;73.168;2023-04-25T15:41:16;130.25;120.25;80.50
73825;PMS5003;64145;55.060;73.168;2023-04-25T15:43:42;119.00;112.00;74.75
73825;PMS5003;64145;55.060;73.168;2023-04-25T15:46:07;110.00;101.00;67.67
73825;PMS5003;64145;55.060;73.168;2023-04-25T15:48:33;99.33;93.67;61.00
73825;PMS5003;64145;55.060;73.168;2023-04-25T15:51:08;98.50;89.50;60.00